createdAt,value
2023-01-31T00:01:45.947Z,5.47
2023-01-31T00:04:14.142Z,6.00
2023-01-31T00:06:51.186Z,5.63
2023-01-31T00:09:19.088Z,4.97
2023-01-31T00:11:46.402Z,5.50
2023-01-31T00:14:18.556Z,5.43
2023-01-31T00:16:45.746Z,5.47
2023-01-31T00:19:13.717Z,5.27
2023-01-31T00:21:43.757Z,5.73
2023-01-31T00:24:13.867Z,5.30
2023-01-31T00:26:42.687Z,5.10
2023-01-31T00:29:10.525Z,5.03
2023-01-31T00:31:39.052Z,5.37
2023-01-31T00:34:06.998Z,4.63
2023-01-31T00:36:36.352Z,5.17
2023-01-31T00:39:05.321Z,5.43
2023-01-31T00:41:33.508Z,5.07
2023-01-31T00:44:00.669Z,4.47
2023-01-31T00:46:28.362Z,4.87
2023-01-31T00:48:58.747Z,4.90
2023-01-31T00:51:26.864Z,5.33
2023-01-31T00:53:54.424Z,4.60
2023-01-31T00:56:27.255Z,5.43
2023-01-31T00:58:54.411Z,4.73
2023-01-31T01:01:26.265Z,4.87
2023-01-31T01:03:57.492Z,4.23
2023-01-31T01:06:25.425Z,4.77
2023-01-31T01:08:53.212Z,5.50
2023-01-31T01:11:26.373Z,5.23
2023-01-31T01:13:53.651Z,4.73
2023-01-31T01:16:26.171Z,5.23
2023-01-31T01:18:56.517Z,4.67
2023-01-31T01:21:28.590Z,4.57
2023-01-31T01:23:58.725Z,4.77
2023-01-31T01:26:28.372Z,5.40
2023-01-31T01:28:57.167Z,6.20
2023-01-31T01:31:32.479Z,4.07
2023-01-31T01:34:03.704Z,4.33
2023-01-31T01:36:34.573Z,4.90
2023-01-31T01:39:05.706Z,4.73
2023-01-31T01:41:36.302Z,4.70
2023-01-31T01:44:24.688Z,4.83
2023-01-31T01:46:52.526Z,5.13
2023-01-31T01:49:28.763Z,4.27
2023-01-31T01:51:58.383Z,4.57
2023-01-31T01:54:33.670Z,4.77
2023-01-31T01:57:03.778Z,4.43
2023-01-31T01:59:48.030Z,3.87
2023-01-31T02:02:15.662Z,3.87
2023-01-31T02:04:45.249Z,3.87
2023-01-31T02:07:13.729Z,4.67
2023-01-31T02:10:28.690Z,4.37
2023-01-31T02:12:55.989Z,3.40
2023-01-31T02:15:23.111Z,4.60
2023-01-31T02:17:50.170Z,4.33
2023-01-31T02:20:45.318Z,3.23
2023-01-31T02:23:36.098Z,3.93
2023-01-31T02:26:29.158Z,3.67
2023-01-31T02:29:32.613Z,3.97
2023-01-31T02:32:14.925Z,4.10
2023-01-31T02:35:12.296Z,4.77
2023-01-31T02:37:54.305Z,3.37
2023-01-31T02:40:38.608Z,3.97
2023-01-31T02:44:02.015Z,4.63
2023-01-31T02:47:09.598Z,5.03
2023-01-31T02:49:42.324Z,4.33
2023-01-31T02:52:40.056Z,4.07
2023-01-31T02:55:36.769Z,3.70
2023-01-31T02:58:07.202Z,2.50
2023-01-31T03:00:36.822Z,2.67
2023-01-31T03:03:07.988Z,3.97
2023-01-31T03:05:35.004Z,3.53
2023-01-31T03:08:05.408Z,3.87
2023-01-31T03:10:51.059Z,4.40
2023-01-31T03:13:36.653Z,2.37
2023-01-31T03:16:24.520Z,3.37
2023-01-31T03:19:19.786Z,3.43
2023-01-31T03:21:53.320Z,3.07
2023-01-31T03:24:26.257Z,3.60
2023-01-31T03:26:58.921Z,3.63
2023-01-31T03:29:28.184Z,3.80
2023-01-31T03:32:13.115Z,3.90
2023-01-31T03:34:40.926Z,3.67
2023-01-31T03:37:23.114Z,4.20
2023-01-31T03:40:03.823Z,3.50
2023-01-31T03:42:55.094Z,3.20
2023-01-31T03:45:40.584Z,4.13
2023-01-31T03:48:14.405Z,2.40
2023-01-31T03:50:45.958Z,2.80
2023-01-31T03:53:41.529Z,3.57
2023-01-31T03:56:23.591Z,3.20
2023-01-31T03:59:16.792Z,2.40
2023-01-31T04:01:49.232Z,3.17
2023-01-31T04:04:25.444Z,3.73
2023-01-31T04:06:52.695Z,2.83
2023-01-31T04:09:22.132Z,2.73
2023-01-31T04:11:51.565Z,2.83
2023-01-31T04:14:19.063Z,3.20
2023-01-31T04:16:46.176Z,3.40
2023-01-31T04:19:13.351Z,3.63
2023-01-31T04:21:41.401Z,2.50
2023-01-31T04:24:10.402Z,3.77
2023-01-31T04:26:38.684Z,3.30
2023-01-31T04:29:05.603Z,3.93
2023-01-31T04:31:32.894Z,4.30
2023-01-31T04:34:05.829Z,2.70
2023-01-31T04:36:36.844Z,4.27
2023-01-31T04:39:05.084Z,2.87
2023-01-31T04:41:33.315Z,3.87
2023-01-31T04:44:00.545Z,4.03
2023-01-31T04:46:29.538Z,3.60
2023-01-31T04:48:56.784Z,3.20
2023-01-31T04:51:23.815Z,2.43
2023-01-31T04:53:51.783Z,3.40
2023-01-31T04:56:19.959Z,2.73
2023-01-31T04:58:48.388Z,2.93
2023-01-31T05:01:15.854Z,3.47
2023-01-31T05:03:42.827Z,3.47
2023-01-31T05:06:09.741Z,2.47
2023-01-31T05:08:36.620Z,3.50
2023-01-31T05:11:05.872Z,4.30
2023-01-31T05:13:33.738Z,3.40
2023-01-31T05:16:02.843Z,2.60
2023-01-31T05:18:29.953Z,3.37
2023-01-31T05:20:57.096Z,3.10
2023-01-31T05:23:24.186Z,2.63
2023-01-31T05:25:51.185Z,3.83
2023-01-31T05:28:18.803Z,3.23
2023-01-31T05:30:46.010Z,3.37
2023-01-31T05:33:13.603Z,3.20
2023-01-31T05:35:42.262Z,4.70
2023-01-31T05:38:10.147Z,3.53
2023-01-31T05:40:37.701Z,3.23
2023-01-31T05:43:04.844Z,3.00
2023-01-31T05:45:33.065Z,3.53
2023-01-31T05:48:00.208Z,2.33
2023-01-31T05:50:27.446Z,3.00
2023-01-31T05:52:56.270Z,3.53
2023-01-31T05:55:24.221Z,3.37
2023-01-31T05:57:52.583Z,3.00
2023-01-31T06:00:20.108Z,3.17
2023-01-31T06:02:48.273Z,3.57
2023-01-31T06:05:15.806Z,2.13
2023-01-31T06:07:43.078Z,2.87
2023-01-31T06:10:11.583Z,3.30
2023-01-31T06:12:40.321Z,3.70
2023-01-31T06:15:08.756Z,2.93
2023-01-31T06:17:36.417Z,2.93
2023-01-31T06:20:05.447Z,2.83
2023-01-31T06:22:32.968Z,2.90
2023-01-31T06:25:00.065Z,2.73
2023-01-31T06:27:26.996Z,4.07
2023-01-31T06:29:54.058Z,3.40
2023-01-31T06:32:20.959Z,6.10
2023-01-31T06:34:48.080Z,3.57
2023-01-31T06:37:16.130Z,3.53
2023-01-31T06:39:42.945Z,3.43
2023-01-31T06:42:09.788Z,3.87
2023-01-31T06:44:37.884Z,2.73
2023-01-31T06:47:04.763Z,4.00
2023-01-31T06:49:31.727Z,2.90
2023-01-31T06:51:58.599Z,6.37
2023-01-31T06:54:25.383Z,5.00
2023-01-31T06:56:52.254Z,4.70
2023-01-31T06:59:19.058Z,5.87
2023-01-31T07:01:45.949Z,3.33
2023-01-31T07:04:12.791Z,4.20
2023-01-31T07:06:39.693Z,3.90
2023-01-31T07:09:07.540Z,2.70
2023-01-31T07:11:34.476Z,2.93
2023-01-31T07:14:01.342Z,3.27
2023-01-31T07:16:28.219Z,3.60
2023-01-31T07:18:56.231Z,2.80
2023-01-31T07:21:27.844Z,2.77
2023-01-31T07:23:54.641Z,3.40
2023-01-31T07:26:21.512Z,3.63
2023-01-31T07:28:48.364Z,3.77
2023-01-31T07:31:15.649Z,6.03
2023-01-31T07:33:42.619Z,3.73
2023-01-31T07:36:14.362Z,2.93
2023-01-31T07:38:42.014Z,2.67
2023-01-31T07:41:11.518Z,3.87
2023-01-31T07:43:40.235Z,3.80
2023-01-31T07:46:10.425Z,3.50
2023-01-31T07:48:38.251Z,3.00
2023-01-31T07:51:06.068Z,2.70
2023-01-31T07:53:35.432Z,2.77
2023-01-31T07:56:08.610Z,3.60
2023-01-31T07:58:36.287Z,2.60
2023-01-31T08:01:25.051Z,3.20
2023-01-31T08:03:52.416Z,2.80
2023-01-31T08:06:19.520Z,2.77
2023-01-31T08:08:46.608Z,3.03
2023-01-31T08:11:13.730Z,3.17
2023-01-31T08:13:40.707Z,2.53
2023-01-31T08:16:09.533Z,3.30
2023-01-31T08:18:37.926Z,3.17
2023-01-31T08:21:05.409Z,4.20
2023-01-31T08:23:32.915Z,4.27
2023-01-31T08:26:07.380Z,3.97
2023-01-31T08:28:34.434Z,2.90
2023-01-31T08:31:09.023Z,3.03
2023-01-31T08:33:37.617Z,4.13
2023-01-31T08:36:19.039Z,3.83
2023-01-31T08:38:46.480Z,2.77
2023-01-31T08:41:13.820Z,1.90
2023-01-31T08:43:55.129Z,3.27
2023-01-31T08:46:25.482Z,2.93
2023-01-31T08:48:52.497Z,3.00
2023-01-31T08:51:19.348Z,2.77
2023-01-31T08:53:46.258Z,3.40
2023-01-31T08:56:14.416Z,3.27
2023-01-31T08:58:42.939Z,3.00
2023-01-31T09:01:12.561Z,2.73
2023-01-31T09:03:40.241Z,2.77
2023-01-31T09:06:11.005Z,2.80
2023-01-31T09:08:37.822Z,3.23
2023-01-31T09:11:05.935Z,3.50
2023-01-31T09:13:34.410Z,3.80
2023-01-31T09:16:09.377Z,3.90
2023-01-31T09:18:38.774Z,2.80
2023-01-31T09:21:14.971Z,3.70
2023-01-31T09:23:42.809Z,3.00
2023-01-31T09:26:13.592Z,3.80
2023-01-31T09:28:43.659Z,5.33
2023-01-31T09:31:13.903Z,3.77
2023-01-31T09:33:40.974Z,3.07
2023-01-31T09:36:12.947Z,3.60
2023-01-31T09:38:40.514Z,3.50
2023-01-31T09:41:38.664Z,2.50
2023-01-31T09:44:19.201Z,5.30
2023-01-31T09:46:54.393Z,3.70
2023-01-31T09:49:43.025Z,5.00
2023-01-31T09:52:11.124Z,3.20
2023-01-31T09:54:40.408Z,2.73
2023-01-31T09:57:13.097Z,3.33
2023-01-31T09:59:52.349Z,2.03
2023-01-31T10:02:28.388Z,2.60
2023-01-31T10:05:19.709Z,3.60
2023-01-31T10:08:03.677Z,4.03
2023-01-31T10:10:31.509Z,4.97
2023-01-31T10:13:03.341Z,3.07
2023-01-31T10:15:45.735Z,3.50
2023-01-31T10:18:24.830Z,2.43
2023-01-31T10:21:15.461Z,2.73
2023-01-31T10:23:46.142Z,2.23
2023-01-31T10:26:31.753Z,3.17
2023-01-31T10:29:05.090Z,3.13
2023-01-31T10:31:52.468Z,3.77
2023-01-31T10:34:27.153Z,2.70
2023-01-31T10:37:09.644Z,3.87
2023-01-31T10:39:44.705Z,2.23
2023-01-31T10:42:34.483Z,3.33
2023-01-31T10:45:09.860Z,3.50
2023-01-31T10:47:41.842Z,2.00
2023-01-31T10:50:36.246Z,2.67
2023-01-31T10:53:17.806Z,3.43
2023-01-31T10:55:47.216Z,3.70
2023-01-31T10:58:22.282Z,2.70
2023-01-31T11:00:53.033Z,2.37
2023-01-31T11:03:19.907Z,3.43
2023-01-31T11:05:58.215Z,2.73
2023-01-31T11:08:35.135Z,3.13
2023-01-31T11:11:11.248Z,3.70
2023-01-31T11:13:38.972Z,3.97
2023-01-31T11:16:11.806Z,4.87
2023-01-31T11:18:46.258Z,4.17
2023-01-31T11:21:24.205Z,3.07
2023-01-31T11:23:52.500Z,3.40
2023-01-31T11:26:38.301Z,4.33
2023-01-31T11:29:20.050Z,7.40
2023-01-31T11:31:47.963Z,3.17
2023-01-31T11:34:33.917Z,3.70
2023-01-31T11:37:16.204Z,3.67
2023-01-31T11:39:54.228Z,3.03
2023-01-31T11:42:21.032Z,3.30
2023-01-31T11:45:01.876Z,3.87
2023-01-31T11:47:49.319Z,3.60
2023-01-31T11:50:59.773Z,2.73
2023-01-31T11:53:43.897Z,3.20
2023-01-31T11:56:30.962Z,2.67
2023-01-31T11:59:06.054Z,3.60
2023-01-31T12:01:33.423Z,3.20
2023-01-31T12:04:07.039Z,3.47
2023-01-31T12:06:36.552Z,2.70
2023-01-31T12:09:18.059Z,2.50
2023-01-31T12:11:55.579Z,2.80
2023-01-31T12:14:25.160Z,1.80
2023-01-31T12:16:56.748Z,2.53
2023-01-31T12:19:26.341Z,2.40
2023-01-31T12:22:21.839Z,2.13
2023-01-31T12:25:00.760Z,2.60
2023-01-31T12:28:01.838Z,2.30
2023-01-31T12:30:44.144Z,2.60
2023-01-31T12:33:25.829Z,2.53
2023-01-31T12:36:09.626Z,2.50
2023-01-31T12:39:12.310Z,2.40
2023-01-31T12:41:42.362Z,2.50
2023-01-31T12:44:39.275Z,2.53
2023-01-31T12:47:36.103Z,3.43
2023-01-31T12:50:22.436Z,2.83
2023-01-31T12:52:55.371Z,2.57
2023-01-31T12:55:52.255Z,2.93
2023-01-31T12:58:39.432Z,2.00
2023-01-31T13:01:31.770Z,2.23
2023-01-31T13:03:58.529Z,2.60
2023-01-31T13:06:32.755Z,1.90
2023-01-31T13:09:13.326Z,4.30
2023-01-31T13:11:51.163Z,3.53
2023-01-31T13:14:22.337Z,3.20
2023-01-31T13:16:57.227Z,3.90
2023-01-31T13:19:52.385Z,4.20
2023-01-31T13:22:24.160Z,3.40
2023-01-31T13:25:15.598Z,3.67
2023-01-31T13:27:49.043Z,3.43
2023-01-31T13:30:33.376Z,3.47
2023-01-31T13:33:03.785Z,4.07
2023-01-31T13:35:38.223Z,3.40
2023-01-31T13:38:11.683Z,11.30
2023-01-31T13:40:47.650Z,15.60
2023-01-31T13:43:16.461Z,4.33
2023-01-31T13:45:56.938Z,4.00
2023-01-31T13:48:33.947Z,9.00
2023-01-31T13:51:10.934Z,3.63
2023-01-31T13:53:49.904Z,5.23
2023-01-31T13:56:30.490Z,4.00
2023-01-31T13:58:58.196Z,2.67
2023-01-31T14:01:27.926Z,4.97
2023-01-31T14:04:15.972Z,4.53
2023-01-31T14:07:16.379Z,4.17
2023-01-31T14:10:03.394Z,3.50
2023-01-31T14:12:41.404Z,3.60
2023-01-31T14:15:47.804Z,4.00
2023-01-31T14:18:45.474Z,5.23
2023-01-31T14:21:30.718Z,3.83
2023-01-31T14:23:59.752Z,4.83
2023-01-31T14:26:44.828Z,4.23
2023-01-31T14:29:26.390Z,4.53
2023-01-31T14:31:56.126Z,4.20
2023-01-31T14:34:32.809Z,4.33
2023-01-31T14:37:16.197Z,5.00
2023-01-31T14:39:51.899Z,4.50
2023-01-31T14:42:36.744Z,6.03
2023-01-31T14:45:27.518Z,3.93
2023-01-31T14:48:27.589Z,3.87
2023-01-31T14:51:09.847Z,4.67
2023-01-31T14:54:21.748Z,4.70
2023-01-31T14:56:54.895Z,4.60
2023-01-31T14:59:57.139Z,3.73
2023-01-31T15:02:23.990Z,4.73
2023-01-31T15:05:11.364Z,5.20
2023-01-31T15:08:26.540Z,4.93
2023-01-31T15:11:06.203Z,3.60
2023-01-31T15:13:47.575Z,4.83
2023-01-31T15:16:35.120Z,5.07
2023-01-31T15:19:24.493Z,6.10
2023-01-31T15:22:04.588Z,5.67
2023-01-31T15:24:49.139Z,6.80
2023-01-31T15:27:19.901Z,8.13
2023-01-31T15:29:56.573Z,9.93
2023-01-31T15:32:27.996Z,11.67
2023-01-31T15:35:13.568Z,9.77
2023-01-31T15:37:41.621Z,9.57
2023-01-31T15:40:20.814Z,9.50
2023-01-31T15:42:47.661Z,8.83
2023-01-31T15:45:19.194Z,7.43
2023-01-31T15:47:56.825Z,7.87
2023-01-31T15:50:23.896Z,9.67
2023-01-31T15:52:50.780Z,9.63
2023-01-31T15:55:19.896Z,11.63
2023-01-31T15:57:56.967Z,11.00
2023-01-31T16:00:33.922Z,9.77
2023-01-31T16:03:01.770Z,8.27
2023-01-31T16:05:34.057Z,10.03
2023-01-31T16:08:04.034Z,8.60
2023-01-31T16:10:31.801Z,13.13
2023-01-31T16:13:01.416Z,14.63
2023-01-31T16:15:32.180Z,18.40
2023-01-31T16:18:03.661Z,24.03
2023-01-31T16:20:42.650Z,17.33
2023-01-31T16:23:36.540Z,11.93
2023-01-31T16:26:14.860Z,10.60
2023-01-31T16:28:46.926Z,12.40
2023-01-31T16:31:21.618Z,9.47
2023-01-31T16:33:52.728Z,9.00
2023-01-31T16:36:28.944Z,10.57
2023-01-31T16:39:02.057Z,10.87
2023-01-31T16:41:40.752Z,12.13
2023-01-31T16:44:14.811Z,12.87
2023-01-31T16:46:45.541Z,10.87
2023-01-31T16:49:27.831Z,16.80
2023-01-31T16:52:08.909Z,14.73
2023-01-31T16:54:50.456Z,13.57
2023-01-31T16:57:39.891Z,14.40
2023-01-31T17:00:27.600Z,15.93
2023-01-31T17:03:00.317Z,14.93
2023-01-31T17:05:37.650Z,14.10
2023-01-31T17:08:05.326Z,17.13
2023-01-31T17:10:35.148Z,14.50
2023-01-31T17:13:06.629Z,10.33
2023-01-31T17:15:33.611Z,12.50
2023-01-31T17:18:00.464Z,12.67
2023-01-31T17:20:28.623Z,17.10
2023-01-31T17:23:03.179Z,18.50
2023-01-31T17:25:37.949Z,15.50
2023-01-31T17:28:06.046Z,11.50
2023-01-31T17:30:34.136Z,10.50
2023-01-31T17:33:01.618Z,11.53
2023-01-31T17:35:40.516Z,11.67
2023-01-31T17:38:07.550Z,10.90
2023-01-31T17:40:34.476Z,10.07
2023-01-31T17:43:04.098Z,9.93
2023-01-31T17:45:32.592Z,10.60
2023-01-31T17:47:59.823Z,9.40
2023-01-31T17:50:30.085Z,8.53
2023-01-31T17:52:57.366Z,10.67
2023-01-31T17:55:25.855Z,11.63
2023-01-31T17:57:55.072Z,13.57
2023-01-31T18:00:22.053Z,11.03
2023-01-31T18:02:49.080Z,11.17
2023-01-31T18:05:24.453Z,11.53
2023-01-31T18:07:57.011Z,9.93
2023-01-31T18:10:23.877Z,10.43
2023-01-31T18:12:50.925Z,10.37
2023-01-31T18:15:18.005Z,9.87
2023-01-31T18:17:44.912Z,9.40
2023-01-31T18:20:11.996Z,10.03
2023-01-31T18:22:39.323Z,10.57
2023-01-31T18:25:06.649Z,10.17
2023-01-31T18:27:34.212Z,9.87
2023-01-31T18:30:01.205Z,10.67
2023-01-31T18:32:28.052Z,12.00
2023-01-31T18:34:55.078Z,10.13
2023-01-31T18:37:25.139Z,12.97
2023-01-31T18:39:52.961Z,10.63
2023-01-31T18:42:20.840Z,11.83
2023-01-31T18:44:52.516Z,11.53
2023-01-31T18:47:19.548Z,9.53
2023-01-31T18:50:08.764Z,9.27
2023-01-31T18:52:37.186Z,11.03
2023-01-31T18:55:07.814Z,10.87
2023-01-31T18:57:34.910Z,10.13
2023-01-31T19:00:02.058Z,9.90
2023-01-31T19:02:30.132Z,9.57
2023-01-31T19:04:58.111Z,8.93
2023-01-31T19:07:33.005Z,8.17
2023-01-31T19:10:09.340Z,9.93
2023-01-31T19:12:50.362Z,10.10
2023-01-31T19:15:19.727Z,8.37
2023-01-31T19:17:46.789Z,9.80
2023-01-31T19:20:13.731Z,9.53
2023-01-31T19:22:40.633Z,10.90
2023-01-31T19:25:14.801Z,8.47
2023-01-31T19:27:45.543Z,8.90
2023-01-31T19:30:19.879Z,9.33
2023-01-31T19:32:46.904Z,8.37
2023-01-31T19:35:15.943Z,7.50
2023-01-31T19:37:43.039Z,7.93
2023-01-31T19:40:13.766Z,8.50
2023-01-31T19:42:52.086Z,8.87
2023-01-31T19:45:26.384Z,10.03
2023-01-31T19:47:53.437Z,23.50
2023-01-31T19:50:22.592Z,14.93
2023-01-31T19:52:49.562Z,17.53
2023-01-31T19:55:22.726Z,16.37
2023-01-31T19:57:50.912Z,16.47
2023-01-31T20:00:17.955Z,15.07
2023-01-31T20:02:45.106Z,17.90
2023-01-31T20:05:15.259Z,13.20
2023-01-31T20:07:45.415Z,9.87
2023-01-31T20:10:13.119Z,8.70
2023-01-31T20:12:40.143Z,8.97
2023-01-31T20:15:08.201Z,9.63
2023-01-31T20:17:35.205Z,9.00
2023-01-31T20:20:02.677Z,9.63
2023-01-31T20:22:29.828Z,9.77
2023-01-31T20:24:57.256Z,9.87
2023-01-31T20:27:25.219Z,12.07
2023-01-31T20:29:52.138Z,18.97
2023-01-31T20:32:19.662Z,13.47
2023-01-31T20:34:46.721Z,11.80
2023-01-31T20:37:13.948Z,10.50
2023-01-31T20:39:42.044Z,9.50
2023-01-31T20:42:12.802Z,8.37
2023-01-31T20:44:41.709Z,9.03
2023-01-31T20:47:15.895Z,8.70
2023-01-31T20:49:47.680Z,8.70
2023-01-31T20:52:17.911Z,8.37
2023-01-31T20:54:45.745Z,8.20
2023-01-31T20:57:31.538Z,7.67
2023-01-31T21:00:01.599Z,6.40
2023-01-31T21:02:31.853Z,6.83
2023-01-31T21:05:17.757Z,7.13
2023-01-31T21:07:47.880Z,6.47
2023-01-31T21:10:18.395Z,7.13
2023-01-31T21:12:52.580Z,8.83
2023-01-31T21:15:28.630Z,8.57
2023-01-31T21:17:56.311Z,7.50
2023-01-31T21:20:30.395Z,6.80
2023-01-31T21:23:04.601Z,7.33
2023-01-31T21:25:34.924Z,8.07
2023-01-31T21:28:07.635Z,7.40
2023-01-31T21:30:37.733Z,7.43
2023-01-31T21:33:05.391Z,7.33
2023-01-31T21:35:32.456Z,5.87
2023-01-31T21:37:59.885Z,7.97
2023-01-31T21:40:27.225Z,6.23
2023-01-31T21:42:54.744Z,5.37
2023-01-31T21:45:39.662Z,5.77
2023-01-31T21:48:29.571Z,6.70
2023-01-31T21:50:56.995Z,6.70
2023-01-31T21:53:23.964Z,5.80
2023-01-31T21:55:50.886Z,6.27
2023-01-31T21:58:18.101Z,6.70
2023-01-31T22:00:44.991Z,6.33
2023-01-31T22:03:15.027Z,6.30
2023-01-31T22:05:44.032Z,6.63
2023-01-31T22:08:20.331Z,5.77
2023-01-31T22:11:05.747Z,6.63
2023-01-31T22:13:33.637Z,6.67
2023-01-31T22:16:05.715Z,6.87
2023-01-31T22:18:34.325Z,6.83
2023-01-31T22:21:03.027Z,6.53
2023-01-31T22:23:30.245Z,6.33
2023-01-31T22:26:06.429Z,7.00
2023-01-31T22:28:40.029Z,6.83
2023-01-31T22:31:08.332Z,6.80
2023-01-31T22:33:37.848Z,7.03
2023-01-31T22:36:09.189Z,10.83
2023-01-31T22:38:38.637Z,10.67
2023-01-31T22:41:21.339Z,13.73
2023-01-31T22:43:51.895Z,11.17
2023-01-31T22:46:28.007Z,7.80
2023-01-31T22:48:57.165Z,8.27
2023-01-31T22:51:28.471Z,8.63
2023-01-31T22:54:03.767Z,8.43
2023-01-31T22:56:35.322Z,8.00
2023-01-31T22:59:08.882Z,7.70
2023-01-31T23:01:39.209Z,8.30
2023-01-31T23:04:11.926Z,7.30
2023-01-31T23:06:41.054Z,9.00
2023-01-31T23:09:08.016Z,8.70
2023-01-31T23:11:35.188Z,10.00
2023-01-31T23:14:12.231Z,9.60
2023-01-31T23:17:14.603Z,8.50
2023-01-31T23:19:41.455Z,9.40
2023-01-31T23:22:09.439Z,9.03
2023-01-31T23:24:36.457Z,8.60
2023-01-31T23:27:09.640Z,8.10
2023-01-31T23:29:36.566Z,7.33
2023-01-31T23:32:05.708Z,8.43
2023-01-31T23:34:32.654Z,7.43
2023-01-31T23:36:59.565Z,6.57
2023-01-31T23:39:28.254Z,6.97
2023-01-31T23:41:56.545Z,6.07
2023-01-31T23:44:24.347Z,5.47
2023-01-31T23:46:51.250Z,5.07
2023-01-31T23:49:19.347Z,4.57
2023-01-31T23:51:46.242Z,4.40
2023-01-31T23:54:13.316Z,4.33
2023-01-31T23:56:43.276Z,4.80
2023-01-31T23:59:15.082Z,4.13
